createdAt,value
2022-11-13T00:01:20.556Z,47.35
2022-11-13T00:04:05.674Z,51.20
2022-11-13T00:06:54.794Z,50.47
2022-11-13T00:09:43.031Z,62.35
2022-11-13T00:12:29.162Z,61.85
2022-11-13T00:15:14.441Z,51.92
2022-11-13T00:18:03.386Z,53.33
2022-11-13T00:20:48.118Z,54.05
2022-11-13T00:23:34.819Z,47.25
2022-11-13T00:26:22.282Z,57.00
2022-11-13T00:29:07.157Z,57.38
2022-11-13T00:31:52.116Z,57.05
2022-11-13T00:34:52.289Z,54.70
2022-11-13T00:37:37.406Z,68.60
2022-11-13T00:40:22.209Z,56.13
2022-11-13T00:43:07.214Z,62.53
2022-11-13T00:45:52.483Z,62.97
2022-11-13T00:48:37.806Z,61.13
2022-11-13T00:51:23.033Z,61.10
2022-11-13T00:54:07.942Z,64.05
2022-11-13T00:56:52.815Z,60.60
2022-11-13T00:59:37.618Z,53.80
2022-11-13T01:02:22.542Z,62.42
2022-11-13T01:05:07.463Z,56.50
2022-11-13T01:07:52.840Z,61.47
2022-11-13T01:10:53.162Z,51.72
2022-11-13T01:13:40.257Z,57.67
2022-11-13T01:16:27.605Z,51.97
2022-11-13T01:19:12.568Z,53.88
2022-11-13T01:21:57.363Z,64.18
2022-11-13T01:24:42.466Z,50.53
2022-11-13T01:27:27.607Z,59.80
2022-11-13T01:30:12.677Z,58.17
2022-11-13T01:32:57.446Z,53.60
2022-11-13T01:35:42.442Z,51.28
2022-11-13T01:38:27.491Z,44.47
2022-11-13T01:41:28.007Z,51.55
2022-11-13T01:44:15.297Z,50.97
2022-11-13T01:47:00.446Z,49.72
2022-11-13T01:49:46.598Z,50.58
2022-11-13T01:52:38.788Z,48.55
2022-11-13T01:55:24.148Z,49.42
2022-11-13T01:58:11.536Z,39.60
2022-11-13T02:00:56.841Z,42.63
2022-11-13T02:03:41.856Z,52.60
2022-11-13T02:06:33.079Z,41.95
2022-11-13T02:12:10.241Z,38.13
2022-11-13T02:14:58.113Z,37.85
2022-11-13T02:17:47.498Z,43.25
2022-11-13T02:20:45.092Z,39.22
2022-11-13T02:24:01.236Z,50.47
2022-11-13T02:26:45.980Z,45.17
2022-11-13T02:29:31.116Z,44.67
2022-11-13T02:32:16.291Z,47.45
2022-11-13T02:35:01.417Z,41.55
2022-11-13T02:37:46.504Z,43.75
2022-11-13T02:40:33.122Z,41.53
2022-11-13T02:43:18.168Z,39.30
2022-11-13T02:46:03.209Z,32.97
2022-11-13T02:48:48.458Z,34.67
2022-11-13T02:51:33.554Z,37.97
2022-11-13T02:54:18.706Z,34.08
2022-11-13T02:57:03.587Z,39.85
2022-11-13T02:59:48.855Z,34.80
2022-11-13T03:02:33.922Z,36.95
2022-11-13T03:05:19.063Z,35.92
2022-11-13T03:08:05.692Z,36.58
2022-11-13T03:10:50.485Z,38.38
2022-11-13T03:13:35.934Z,38.70
2022-11-13T03:16:20.828Z,36.13
2022-11-13T03:19:05.712Z,38.63
2022-11-13T03:21:50.960Z,33.78
2022-11-13T03:24:36.084Z,32.70
2022-11-13T03:27:21.434Z,28.67
2022-11-13T03:30:07.002Z,33.55
2022-11-13T03:32:55.929Z,35.92
2022-11-13T03:35:46.660Z,43.30
2022-11-13T03:38:32.383Z,29.33
2022-11-13T03:41:17.558Z,28.00
2022-11-13T03:44:02.747Z,28.80
2022-11-13T03:46:47.568Z,30.38
2022-11-13T03:49:32.544Z,31.27
2022-11-13T03:52:17.309Z,26.17
2022-11-13T03:55:02.199Z,38.58
2022-11-13T03:57:47.865Z,26.90
2022-11-13T04:00:33.133Z,29.60
2022-11-13T04:03:18.089Z,25.08
2022-11-13T04:06:02.898Z,32.58
2022-11-13T04:08:47.843Z,30.23
2022-11-13T04:11:33.168Z,27.38
2022-11-13T04:14:18.184Z,29.48
2022-11-13T04:17:02.976Z,23.75
2022-11-13T04:19:47.807Z,33.22
2022-11-13T04:22:33.402Z,32.08
2022-11-13T04:25:18.522Z,25.77
2022-11-13T04:28:03.559Z,27.60
2022-11-13T04:30:48.366Z,26.98
2022-11-13T04:33:33.277Z,29.48
2022-11-13T04:36:18.186Z,29.48
2022-11-13T04:39:03.404Z,28.17
2022-11-13T04:42:07.344Z,27.50
2022-11-13T04:44:52.425Z,28.15
2022-11-13T04:47:37.318Z,27.50
2022-11-13T04:50:23.496Z,28.08
2022-11-13T04:53:08.511Z,27.15
2022-11-13T04:55:53.594Z,32.75
2022-11-13T04:58:38.804Z,25.88
2022-11-13T05:01:23.642Z,25.75
2022-11-13T05:04:12.245Z,23.52
2022-11-13T05:06:57.295Z,29.05
2022-11-13T05:09:42.209Z,27.67
2022-11-13T05:12:27.169Z,27.40
2022-11-13T05:15:12.136Z,30.13
2022-11-13T05:17:56.925Z,27.95
2022-11-13T05:20:41.756Z,27.75
2022-11-13T05:23:26.845Z,21.63
2022-11-13T05:26:13.527Z,33.13
2022-11-13T05:28:59.642Z,28.35
2022-11-13T05:31:45.013Z,28.95
2022-11-13T05:34:30.056Z,24.92
2022-11-13T05:37:15.056Z,31.33
2022-11-13T05:40:00.216Z,30.63
2022-11-13T05:42:45.190Z,28.52
2022-11-13T05:45:30.352Z,26.73
2022-11-13T05:48:15.550Z,26.73
2022-11-13T05:51:24.984Z,25.55
2022-11-13T05:54:11.128Z,26.45
2022-11-13T05:56:55.978Z,25.63
2022-11-13T05:59:41.120Z,21.52
2022-11-13T06:02:26.072Z,32.67
2022-11-13T06:05:11.002Z,23.65
2022-11-13T06:07:55.882Z,27.58
2022-11-13T06:10:40.701Z,24.83
2022-11-13T06:13:25.826Z,24.90
2022-11-13T06:16:16.948Z,22.40
2022-11-13T06:19:05.435Z,24.63
2022-11-13T06:21:50.759Z,20.95
2022-11-13T06:24:35.840Z,22.88
2022-11-13T06:27:20.811Z,23.90
2022-11-13T06:30:06.181Z,22.17
2022-11-13T06:32:54.543Z,25.50
2022-11-13T06:35:39.453Z,25.00
2022-11-13T06:38:24.271Z,22.40
2022-11-13T06:41:12.054Z,23.55
2022-11-13T06:44:02.665Z,27.33
2022-11-13T06:46:48.506Z,24.90
2022-11-13T06:49:33.386Z,28.42
2022-11-13T06:52:18.302Z,23.77
2022-11-13T06:55:03.578Z,31.45
2022-11-13T06:57:48.541Z,31.08
2022-11-13T07:00:36.978Z,28.20
2022-11-13T07:03:26.023Z,23.70
2022-11-13T07:06:16.536Z,24.25
2022-11-13T07:09:01.577Z,27.83
2022-11-13T07:11:46.595Z,25.55
2022-11-13T07:14:31.502Z,25.30
2022-11-13T07:17:16.522Z,31.05
2022-11-13T07:20:01.426Z,37.30
2022-11-13T07:22:46.342Z,29.50
2022-11-13T07:25:32.066Z,30.02
2022-11-13T07:28:16.881Z,30.77
2022-11-13T07:31:01.723Z,28.63
2022-11-13T07:33:49.158Z,30.67
2022-11-13T07:36:34.297Z,29.70
2022-11-13T07:39:19.206Z,30.20
2022-11-13T07:42:04.183Z,29.88
2022-11-13T07:44:54.655Z,33.67
2022-11-13T07:47:40.796Z,38.97
2022-11-13T07:50:28.350Z,38.35
2022-11-13T07:53:13.418Z,36.33
2022-11-13T07:56:04.994Z,36.63
2022-11-13T07:58:49.878Z,39.92
2022-11-13T08:01:34.909Z,34.55
2022-11-13T08:04:19.740Z,41.55
2022-11-13T08:07:05.385Z,37.58
2022-11-13T08:09:50.464Z,40.80
2022-11-13T08:12:35.818Z,45.58
2022-11-13T08:15:20.668Z,46.60
2022-11-13T08:18:05.928Z,46.92
2022-11-13T08:20:50.838Z,43.88
2022-11-13T08:23:35.593Z,40.83
2022-11-13T08:26:20.646Z,41.88
2022-11-13T08:29:05.292Z,40.75
2022-11-13T08:31:50.278Z,45.38
2022-11-13T08:34:36.935Z,37.83
2022-11-13T08:37:22.058Z,39.75
2022-11-13T08:40:07.349Z,38.67
2022-11-13T08:43:39.807Z,38.35
2022-11-13T08:46:24.874Z,35.22
2022-11-13T08:49:09.705Z,35.50
2022-11-13T08:51:54.707Z,36.03
2022-11-13T08:54:39.585Z,38.80
2022-11-13T08:57:24.498Z,44.78
2022-11-13T09:00:10.274Z,33.53
2022-11-13T09:02:57.198Z,36.92
2022-11-13T09:05:42.362Z,33.45
2022-11-13T09:08:29.840Z,40.15
2022-11-13T09:11:15.018Z,30.80
2022-11-13T09:14:00.190Z,39.78
2022-11-13T09:16:45.307Z,36.40
2022-11-13T09:19:30.174Z,31.88
2022-11-13T09:22:15.109Z,36.03
2022-11-13T09:25:00.096Z,32.78
2022-11-13T09:27:52.486Z,32.30
2022-11-13T09:30:39.804Z,29.45
2022-11-13T09:33:24.896Z,31.77
2022-11-13T09:36:14.455Z,33.22
2022-11-13T09:39:00.821Z,37.25
2022-11-13T09:41:54.394Z,36.20
2022-11-13T09:44:47.682Z,29.73
2022-11-13T09:47:41.290Z,30.13
2022-11-13T09:50:29.660Z,26.35
2022-11-13T09:53:15.742Z,28.75
2022-11-13T09:56:14.911Z,31.35
2022-11-13T09:59:22.487Z,30.10
2022-11-13T10:02:23.063Z,25.88
2022-11-13T10:05:22.929Z,30.80
2022-11-13T10:08:19.052Z,28.65
2022-11-13T10:11:37.409Z,27.08
2022-11-13T10:14:32.932Z,25.40
2022-11-13T10:17:30.774Z,28.92
2022-11-13T10:20:22.455Z,28.52
2022-11-13T10:23:30.060Z,33.47
2022-11-13T10:26:18.442Z,29.80
2022-11-13T10:29:12.558Z,29.00
2022-11-13T10:31:59.363Z,27.75
2022-11-13T10:34:48.846Z,23.95
2022-11-13T10:37:55.242Z,25.55
2022-11-13T10:40:40.796Z,30.75
2022-11-13T10:43:26.756Z,31.10
2022-11-13T10:46:24.573Z,27.30
2022-11-13T10:49:29.006Z,27.75
2022-11-13T10:52:27.760Z,26.63
2022-11-13T10:55:37.568Z,28.17
2022-11-13T10:58:22.855Z,25.75
2022-11-13T11:01:23.772Z,27.00
2022-11-13T11:07:21.804Z,29.45
2022-11-13T11:10:33.395Z,29.83
2022-11-13T11:13:23.482Z,28.95
2022-11-13T11:16:12.557Z,27.70
2022-11-13T11:19:02.537Z,25.65
2022-11-13T11:21:51.323Z,28.52
2022-11-13T11:24:42.166Z,23.50
2022-11-13T11:27:35.050Z,25.88
2022-11-13T11:30:22.971Z,23.08
2022-11-13T11:33:19.626Z,24.88
2022-11-13T11:36:08.932Z,26.92
2022-11-13T11:39:25.509Z,33.08
2022-11-13T11:42:34.495Z,25.83
2022-11-13T11:45:34.051Z,24.95
2022-11-13T11:48:21.899Z,25.92
2022-11-13T11:51:35.627Z,24.63
2022-11-13T11:54:40.118Z,27.40
2022-11-13T11:57:41.578Z,23.42
2022-11-13T12:00:31.058Z,25.30
2022-11-13T12:03:44.043Z,25.83
2022-11-13T12:07:00.876Z,25.75
2022-11-13T12:10:13.979Z,27.27
2022-11-13T12:13:13.746Z,27.50
2022-11-13T12:16:10.902Z,27.30
2022-11-13T12:19:04.403Z,24.77
2022-11-13T12:22:06.737Z,26.52
2022-11-13T12:25:27.764Z,24.63
2022-11-13T12:28:20.441Z,27.30
2022-11-13T12:31:41.469Z,22.27
2022-11-13T12:34:34.641Z,27.05
2022-11-13T12:37:35.415Z,27.65
2022-11-13T12:40:28.896Z,34.28
2022-11-13T12:43:51.176Z,19.90
2022-11-13T12:46:38.792Z,25.25
2022-11-13T12:49:23.824Z,31.63
2022-11-13T12:52:22.711Z,29.10
2022-11-13T12:55:25.780Z,29.88
2022-11-13T12:58:20.890Z,28.42
2022-11-13T13:01:17.398Z,27.35
2022-11-13T13:04:30.488Z,29.42
2022-11-13T13:07:48.518Z,30.83
2022-11-13T13:11:00.640Z,24.02
2022-11-13T13:14:05.972Z,27.63
2022-11-13T13:16:51.148Z,28.30
2022-11-13T13:19:35.966Z,33.63
2022-11-13T13:22:30.287Z,25.98
2022-11-13T13:25:31.611Z,23.40
2022-11-13T13:28:24.255Z,26.88
2022-11-13T13:31:12.053Z,27.02
2022-11-13T13:34:19.315Z,33.83
2022-11-13T13:37:21.433Z,25.80
2022-11-13T13:40:29.763Z,24.60
2022-11-13T13:43:29.956Z,30.02
2022-11-13T13:46:21.813Z,25.30
2022-11-13T13:49:13.638Z,23.23
2022-11-13T13:51:58.603Z,25.23
2022-11-13T13:54:45.362Z,21.30
2022-11-13T13:57:30.449Z,23.95
2022-11-13T14:00:17.948Z,25.13
2022-11-13T14:03:03.949Z,26.30
2022-11-13T14:05:48.902Z,25.52
2022-11-13T14:08:34.270Z,26.95
2022-11-13T14:11:22.697Z,25.30
2022-11-13T14:14:22.120Z,23.40
2022-11-13T14:17:09.993Z,23.58
2022-11-13T14:20:00.561Z,22.20
2022-11-13T14:22:56.516Z,24.53
2022-11-13T14:25:43.311Z,25.23
2022-11-13T14:28:31.184Z,26.23
2022-11-13T14:31:16.674Z,22.63
2022-11-13T14:34:08.141Z,24.80
2022-11-13T14:36:53.160Z,26.52
2022-11-13T14:39:37.966Z,24.10
2022-11-13T14:42:28.368Z,26.33
2022-11-13T14:45:16.580Z,28.40
2022-11-13T14:48:04.855Z,28.75
2022-11-13T14:50:56.457Z,24.80
2022-11-13T14:53:42.366Z,25.58
2022-11-13T14:56:33.348Z,36.10
2022-11-13T14:59:26.998Z,29.63
2022-11-13T15:02:12.704Z,27.30
2022-11-13T15:04:57.923Z,29.35
2022-11-13T15:07:45.660Z,30.10
2022-11-13T15:10:31.301Z,30.08
2022-11-13T15:13:17.889Z,28.80
2022-11-13T15:16:03.249Z,33.72
2022-11-13T15:19:04.463Z,38.05
2022-11-13T15:22:20.406Z,33.08
2022-11-13T15:24:54.509Z,34.42
2022-11-13T15:27:43.096Z,34.50
2022-11-13T15:30:28.161Z,28.50
2022-11-13T15:33:15.018Z,31.10
2022-11-13T15:36:00.157Z,36.25
2022-11-13T15:38:45.648Z,33.22
2022-11-13T15:41:32.953Z,32.28
2022-11-13T15:44:17.941Z,38.83
2022-11-13T15:47:02.787Z,41.25
2022-11-13T15:50:09.847Z,35.90
2022-11-13T15:52:54.663Z,31.00
2022-11-13T15:55:41.238Z,33.10
2022-11-13T15:58:29.309Z,33.03
2022-11-13T16:01:19.481Z,34.20
2022-11-13T16:04:06.026Z,39.97
2022-11-13T16:06:51.183Z,28.92
2022-11-13T16:09:36.060Z,34.78
2022-11-13T16:12:21.111Z,34.70
2022-11-13T16:15:06.914Z,29.83
2022-11-13T16:17:54.303Z,34.17
2022-11-13T16:20:39.169Z,31.58
2022-11-13T16:23:24.626Z,31.08
2022-11-13T16:26:14.890Z,35.95
2022-11-13T16:29:13.109Z,30.80
2022-11-13T16:31:59.030Z,32.92
2022-11-13T16:34:46.080Z,30.55
2022-11-13T16:37:31.321Z,35.50
2022-11-13T16:40:22.564Z,30.42
2022-11-13T16:43:07.882Z,30.20
2022-11-13T16:45:53.280Z,34.90
2022-11-13T16:48:38.549Z,32.15
2022-11-13T16:51:23.642Z,32.75
2022-11-13T16:54:08.838Z,30.95
2022-11-13T16:56:53.857Z,30.67
2022-11-13T16:59:39.321Z,37.00
2022-11-13T17:02:24.497Z,35.30
2022-11-13T17:05:14.393Z,33.90
2022-11-13T17:08:00.131Z,34.15
2022-11-13T17:10:45.392Z,40.40
2022-11-13T17:13:30.836Z,41.17
2022-11-13T17:16:17.101Z,39.35
2022-11-13T17:19:02.209Z,35.72
2022-11-13T17:21:47.128Z,38.67
2022-11-13T17:24:32.145Z,39.60
2022-11-13T17:27:17.919Z,44.60
2022-11-13T17:30:03.281Z,33.75
2022-11-13T17:32:50.559Z,38.17
2022-11-13T17:35:35.718Z,32.63
2022-11-13T17:38:20.774Z,42.90
2022-11-13T17:41:10.965Z,36.38
2022-11-13T17:44:00.903Z,35.85
2022-11-13T17:46:47.199Z,41.63
2022-11-13T17:49:32.601Z,43.15
2022-11-13T17:52:17.467Z,41.90
2022-11-13T17:55:05.994Z,42.28
2022-11-13T17:57:51.228Z,39.33
2022-11-13T18:00:36.155Z,39.35
2022-11-13T18:03:21.229Z,42.85
2022-11-13T18:06:08.787Z,43.85
2022-11-13T18:08:53.874Z,51.35
2022-11-13T18:11:38.772Z,48.55
2022-11-13T18:14:23.804Z,51.80
2022-11-13T18:17:08.770Z,51.97
2022-11-13T18:20:01.353Z,49.83
2022-11-13T18:22:46.776Z,50.88
2022-11-13T18:25:38.508Z,52.28
2022-11-13T18:28:24.895Z,50.60
2022-11-13T18:31:12.934Z,51.92
2022-11-13T18:33:59.521Z,49.13
2022-11-13T18:36:50.863Z,52.22
2022-11-13T18:39:35.938Z,59.42
2022-11-13T18:42:20.754Z,50.40
2022-11-13T18:45:06.548Z,54.22
2022-11-13T18:47:51.648Z,52.20
2022-11-13T18:50:36.762Z,60.35
2022-11-13T18:53:21.906Z,55.13
2022-11-13T18:56:10.246Z,56.75
2022-11-13T18:58:56.417Z,58.35
2022-11-13T19:01:45.155Z,54.92
2022-11-13T19:04:32.005Z,56.90
2022-11-13T19:07:17.368Z,59.60
2022-11-13T19:10:03.101Z,55.65
2022-11-13T19:12:48.562Z,57.67
2022-11-13T19:15:38.196Z,56.80
2022-11-13T19:18:23.543Z,55.00
2022-11-13T19:21:11.991Z,54.75
2022-11-13T19:23:58.630Z,55.38
2022-11-13T19:26:44.429Z,60.33
2022-11-13T19:29:29.367Z,59.33
2022-11-13T19:32:14.470Z,54.15
2022-11-13T19:34:59.751Z,58.28
2022-11-13T19:37:44.930Z,54.55
2022-11-13T19:40:30.030Z,61.53
2022-11-13T19:43:14.949Z,61.10
2022-11-13T19:46:08.285Z,55.88
2022-11-13T19:48:53.690Z,55.65
2022-11-13T19:51:38.566Z,54.50
2022-11-13T19:54:23.596Z,55.58
2022-11-13T19:57:11.325Z,60.30
2022-11-13T19:59:56.566Z,53.78
2022-11-13T20:02:41.415Z,64.00
2022-11-13T20:05:26.285Z,58.33
2022-11-13T20:08:12.747Z,60.28
2022-11-13T20:11:03.071Z,63.35
2022-11-13T20:13:48.081Z,60.13
2022-11-13T20:16:33.221Z,56.33
2022-11-13T20:19:18.409Z,60.33
2022-11-13T20:22:03.272Z,60.53
2022-11-13T20:24:48.536Z,56.08
2022-11-13T20:27:36.951Z,62.10
2022-11-13T20:30:22.170Z,62.85
2022-11-13T20:33:07.138Z,61.97
2022-11-13T20:35:55.188Z,57.72
2022-11-13T20:38:41.111Z,57.30
2022-11-13T20:41:26.227Z,56.28
2022-11-13T20:44:12.303Z,57.35
2022-11-13T20:46:57.398Z,60.78
2022-11-13T20:49:42.253Z,65.32
2022-11-13T20:52:27.167Z,62.50
2022-11-13T20:55:12.042Z,58.92
2022-11-13T20:57:57.173Z,55.53
2022-11-13T21:00:42.295Z,62.03
2022-11-13T21:03:27.442Z,66.18
2022-11-13T21:06:15.913Z,65.88
2022-11-13T21:09:01.728Z,61.20
2022-11-13T21:11:46.907Z,61.88
2022-11-13T21:14:31.985Z,72.68
2022-11-13T21:17:16.867Z,67.35
2022-11-13T21:20:02.485Z,67.28
2022-11-13T21:22:47.661Z,66.90
2022-11-13T21:25:32.518Z,73.80
2022-11-13T21:28:22.440Z,66.28
2022-11-13T21:31:17.798Z,75.63
2022-11-13T21:34:03.922Z,76.63
2022-11-13T21:36:49.248Z,74.88
2022-11-13T21:39:34.612Z,78.55
2022-11-13T21:43:26.285Z,70.75
2022-11-13T21:46:12.442Z,80.63
2022-11-13T21:48:59.851Z,74.00
2022-11-13T21:51:44.764Z,79.65
2022-11-13T21:54:29.595Z,79.95
2022-11-13T21:57:14.521Z,79.38
2022-11-13T21:59:59.463Z,81.70
2022-11-13T22:02:44.340Z,86.40
2022-11-13T22:05:29.354Z,82.50
2022-11-13T22:08:14.532Z,85.63
2022-11-13T22:10:59.824Z,83.15
2022-11-13T22:13:44.658Z,97.65
2022-11-13T22:16:32.310Z,89.15
2022-11-13T22:19:25.266Z,84.68
2022-11-13T22:22:12.371Z,90.28
2022-11-13T22:24:57.186Z,86.28
2022-11-13T22:27:42.106Z,94.60
2022-11-13T22:30:27.237Z,87.63
2022-11-13T22:33:12.254Z,92.93
2022-11-13T22:36:05.635Z,90.78
2022-11-13T22:38:51.286Z,89.40
2022-11-13T22:41:36.797Z,92.43
2022-11-13T22:44:22.100Z,96.78
2022-11-13T22:47:07.218Z,92.53
2022-11-13T22:49:52.172Z,97.20
2022-11-13T22:52:37.066Z,93.72
2022-11-13T22:55:22.123Z,88.82
2022-11-13T22:58:07.134Z,87.88
2022-11-13T23:00:51.945Z,94.10
2022-11-13T23:03:38.534Z,102.03
2022-11-13T23:06:26.763Z,107.97
2022-11-13T23:09:11.905Z,98.88
2022-11-13T23:11:56.783Z,99.72
2022-11-13T23:14:41.616Z,97.55
2022-11-13T23:17:26.634Z,93.18
2022-11-13T23:20:12.208Z,101.07
2022-11-13T23:22:57.278Z,104.28
2022-11-13T23:25:42.170Z,102.50
2022-11-13T23:28:28.461Z,104.22
2022-11-13T23:31:14.230Z,108.05
2022-11-13T23:33:59.241Z,101.35
2022-11-13T23:36:44.226Z,104.20
2022-11-13T23:39:29.150Z,95.53
2022-11-13T23:42:14.002Z,113.30
2022-11-13T23:44:58.907Z,107.35
2022-11-13T23:47:43.922Z,113.03
2022-11-13T23:50:29.200Z,108.88
2022-11-13T23:53:14.114Z,115.40
2022-11-13T23:55:59.178Z,110.85
2022-11-13T23:58:44.196Z,109.60
